sensor_id;sensor_type;location;lat;lon;timestamp;pressure;altitude;pressure_sealevel;temperature;humidity
72061;BME280;59925;52.136;5.420;2024-03-22T00:01:41;102169.09;;;10.38;100.00
72061;BME280;59925;52.136;5.420;2024-03-22T00:04:07;102159.78;;;10.40;100.00
72061;BME280;59925;52.136;5.420;2024-03-22T00:06:32;102172.72;;;10.43;100.00
72061;BME280;59925;52.136;5.420;2024-03-22T00:08:58;102154.78;;;10.44;100.00
72061;BME280;59925;52.136;5.420;2024-03-22T00:11:23;102163.38;;;10.46;100.00
72061;BME280;59925;52.136;5.420;2024-03-22T00:13:49;102153.22;;;10.48;100.00
72061;BME280;59925;52.136;5.420;2024-03-22T00:16:14;102139.81;;;10.48;100.00
72061;BME280;59925;52.136;5.420;2024-03-22T00:18:40;102135.50;;;10.47;100.00
72061;BME280;59925;52.136;5.420;2024-03-22T00:21:05;102130.16;;;10.47;100.00
72061;BME280;59925;52.136;5.420;2024-03-22T00:23:31;102125.63;;;10.48;100.00
72061;BME280;59925;52.136;5.420;2024-03-22T00:25:57;102119.44;;;10.47;100.00
72061;BME280;59925;52.136;5.420;2024-03-22T00:28:22;102114.06;;;10.47;100.00
72061;BME280;59925;52.136;5.420;2024-03-22T00:30:47;102116.19;;;10.45;100.00
72061;BME280;59925;52.136;5.420;2024-03-22T00:33:13;102100.31;;;10.43;100.00
72061;BME280;59925;52.136;5.420;2024-03-22T00:35:38;102099.53;;;10.43;100.00
72061;BME280;59925;52.136;5.420;2024-03-22T00:38:04;102108.38;;;10.43;100.00
72061;BME280;59925;52.136;5.420;2024-03-22T00:40:29;102100.78;;;10.40;100.00
72061;BME280;59925;52.136;5.420;2024-03-22T00:42:55;102095.44;;;10.40;100.00
72061;BME280;59925;52.136;5.420;2024-03-22T00:45:21;102086.59;;;10.40;100.00
72061;BME280;59925;52.136;5.420;2024-03-22T00:47:46;102076.09;;;10.38;100.00
72061;BME280;59925;52.136;5.420;2024-03-22T00:50:12;102071.78;;;10.37;100.00
72061;BME280;59925;52.136;5.420;2024-03-22T00:52:38;102072.59;;;10.38;100.00
72061;BME280;59925;52.136;5.420;2024-03-22T00:55:04;102068.25;;;10.37;100.00
72061;BME280;59925;52.136;5.420;2024-03-22T00:57:30;102067.47;;;10.36;100.00
72061;BME280;59925;52.136;5.420;2024-03-22T00:59:56;102053.00;;;10.37;100.00
72061;BME280;59925;52.136;5.420;2024-03-22T01:02:22;102054.84;;;10.37;100.00
72061;BME280;59925;52.136;5.420;2024-03-22T01:04:48;102053.00;;;10.37;100.00
72061;BME280;59925;52.136;5.420;2024-03-22T01:07:13;102059.19;;;10.38;100.00
72061;BME280;59925;52.136;5.420;2024-03-22T01:09:39;102062.91;;;10.37;100.00
72061;BME280;59925;52.136;5.420;2024-03-22T01:12:05;102054.66;;;10.38;100.00
72061;BME280;59925;52.136;5.420;2024-03-22T01:14:31;102058.16;;;10.39;100.00
72061;BME280;59925;52.136;5.420;2024-03-22T01:16:57;102052.00;;;10.38;100.00
72061;BME280;59925;52.136;5.420;2024-03-22T01:19:22;102052.53;;;10.40;100.00
72061;BME280;59925;52.136;5.420;2024-03-22T01:21:49;102058.16;;;10.39;100.00
72061;BME280;59925;52.136;5.420;2024-03-22T01:24:14;102063.72;;;10.37;100.00
72061;BME280;59925;52.136;5.420;2024-03-22T01:26:40;102061.25;;;10.36;100.00
72061;BME280;59925;52.136;5.420;2024-03-22T01:29:05;102056.38;;;10.33;100.00
72061;BME280;59925;52.136;5.420;2024-03-22T01:31:31;102052.41;;;10.35;100.00
72061;BME280;59925;52.136;5.420;2024-03-22T01:33:56;102045.19;;;10.36;100.00
72061;BME280;59925;52.136;5.420;2024-03-22T01:36:22;102052.19;;;10.37;100.00
72061;BME280;59925;52.136;5.420;2024-03-22T01:38:47;102040.44;;;10.38;100.00
72061;BME280;59925;52.136;5.420;2024-03-22T01:41:13;102043.13;;;10.38;100.00
72061;BME280;59925;52.136;5.420;2024-03-22T01:43:39;102032.38;;;10.38;100.00
72061;BME280;59925;52.136;5.420;2024-03-22T01:46:04;102032.13;;;10.39;100.00
72061;BME280;59925;52.136;5.420;2024-03-22T01:48:34;102022.25;;;10.40;100.00
72061;BME280;59925;52.136;5.420;2024-03-22T01:51:00;102017.69;;;10.40;100.00
72061;BME280;59925;52.136;5.420;2024-03-22T01:53:27;102017.47;;;10.42;100.00
72061;BME280;59925;52.136;5.420;2024-03-22T01:55:52;102027.13;;;10.43;100.00
72061;BME280;59925;52.136;5.420;2024-03-22T01:58:18;102021.53;;;10.45;100.00
72061;BME280;59925;52.136;5.420;2024-03-22T02:00:44;102024.47;;;10.43;100.00
72061;BME280;59925;52.136;5.420;2024-03-22T02:03:09;102023.88;;;10.41;100.00
72061;BME280;59925;52.136;5.420;2024-03-22T02:05:35;102023.06;;;10.40;100.00
72061;BME280;59925;52.136;5.420;2024-03-22T02:08:00;102021.19;;;10.41;100.00
72061;BME280;59925;52.136;5.420;2024-03-22T02:10:26;102018.75;;;10.39;100.00
72061;BME280;59925;52.136;5.420;2024-03-22T02:12:52;102018.25;;;10.42;100.00
72061;BME280;59925;52.136;5.420;2024-03-22T02:15:17;102015.38;;;10.44;100.00
72061;BME280;59925;52.136;5.420;2024-03-22T02:17:43;102023.16;;;10.46;100.00
72061;BME280;59925;52.136;5.420;2024-03-22T02:20:08;102008.69;;;10.47;100.00
72061;BME280;59925;52.136;5.420;2024-03-22T02:22:35;102007.66;;;10.48;100.00
72061;BME280;59925;52.136;5.420;2024-03-22T02:25:01;102011.97;;;10.49;100.00
72061;BME280;59925;52.136;5.420;2024-03-22T02:27:26;102007.41;;;10.49;100.00
72061;BME280;59925;52.136;5.420;2024-03-22T02:29:52;101999.13;;;10.51;100.00
72061;BME280;59925;52.136;5.420;2024-03-22T02:32:17;101998.31;;;10.50;100.00
72061;BME280;59925;52.136;5.420;2024-03-22T02:34:43;101987.56;;;10.50;100.00
72061;BME280;59925;52.136;5.420;2024-03-22T02:37:08;101994.00;;;10.49;100.00
72061;BME280;59925;52.136;5.420;2024-03-22T02:39:34;101999.34;;;10.49;100.00
72061;BME280;59925;52.136;5.420;2024-03-22T02:41:59;101994.00;;;10.49;100.00
72061;BME280;59925;52.136;5.420;2024-03-22T02:44:25;101996.69;;;10.49;100.00
72061;BME280;59925;52.136;5.420;2024-03-22T02:46:50;101982.47;;;10.49;100.00
72061;BME280;59925;52.136;5.420;2024-03-22T02:49:16;101978.38;;;10.46;100.00
72061;BME280;59925;52.136;5.420;2024-03-22T02:51:41;101968.75;;;10.45;100.00
72061;BME280;59925;52.136;5.420;2024-03-22T02:54:07;101966.28;;;10.43;100.00
72061;BME280;59925;52.136;5.420;2024-03-22T02:56:32;101961.16;;;10.42;100.00
72061;BME280;59925;52.136;5.420;2024-03-22T02:58:58;101958.50;;;10.42;100.00
72061;BME280;59925;52.136;5.420;2024-03-22T03:01:23;101958.50;;;10.42;100.00
72061;BME280;59925;52.136;5.420;2024-03-22T03:03:49;101944.50;;;10.40;100.00
72061;BME280;59925;52.136;5.420;2024-03-22T03:06:14;101934.03;;;10.38;100.00
72061;BME280;59925;52.136;5.420;2024-03-22T03:08:41;101920.81;;;10.37;100.00
72061;BME280;59925;52.136;5.420;2024-03-22T03:11:07;101914.88;;;10.35;100.00
72061;BME280;59925;52.136;5.420;2024-03-22T03:13:32;101911.63;;;10.33;100.00
72061;BME280;59925;52.136;5.420;2024-03-22T03:15:58;101912.13;;;10.30;100.00
72061;BME280;59925;52.136;5.420;2024-03-22T03:18:23;101917.72;;;10.28;100.00
72061;BME280;59925;52.136;5.420;2024-03-22T03:20:49;101909.69;;;10.28;100.00
72061;BME280;59925;52.136;5.420;2024-03-22T03:23:15;101905.03;;;10.23;100.00
72061;BME280;59925;52.136;5.420;2024-03-22T03:25:40;101912.03;;;10.24;100.00
72061;BME280;59925;52.136;5.420;2024-03-22T03:28:06;101898.63;;;10.24;100.00
72061;BME280;59925;52.136;5.420;2024-03-22T03:30:34;101908.19;;;10.20;100.00
72061;BME280;59925;52.136;5.420;2024-03-22T03:33:00;101906.03;;;10.17;100.00
72061;BME280;59925;52.136;5.420;2024-03-22T03:35:26;101903.00;;;10.13;100.00
72061;BME280;59925;52.136;5.420;2024-03-22T03:37:52;101894.88;;;10.08;100.00
72061;BME280;59925;52.136;5.420;2024-03-22T03:40:18;101884.63;;;10.05;100.00
72061;BME280;59925;52.136;5.420;2024-03-22T03:42:43;101873.13;;;10.05;100.00
72061;BME280;59925;52.136;5.420;2024-03-22T03:45:09;101869.50;;;9.99;100.00
72061;BME280;59925;52.136;5.420;2024-03-22T03:47:34;101874.53;;;9.95;100.00
72061;BME280;59925;52.136;5.420;2024-03-22T03:50:00;101871.06;;;9.95;100.00
72061;BME280;59925;52.136;5.420;2024-03-22T03:52:25;101870.47;;;9.93;100.00
72061;BME280;59925;52.136;5.420;2024-03-22T03:54:51;101866.63;;;9.89;100.00
72061;BME280;59925;52.136;5.420;2024-03-22T03:57:16;101859.91;;;9.86;100.00
72061;BME280;59925;52.136;5.420;2024-03-22T03:59:42;101863.88;;;9.84;100.00
72061;BME280;59925;52.136;5.420;2024-03-22T04:02:07;101868.41;;;9.83;100.00
72061;BME280;59925;52.136;5.420;2024-03-22T04:04:33;101870.03;;;9.84;100.00
72061;BME280;59925;52.136;5.420;2024-03-22T04:06:58;101863.53;;;9.80;100.00
72061;BME280;59925;52.136;5.420;2024-03-22T04:09:24;101861.09;;;9.78;100.00
72061;BME280;59925;52.136;5.420;2024-03-22T04:11:49;101856.00;;;9.77;100.00
72061;BME280;59925;52.136;5.420;2024-03-22T04:14:15;101858.88;;;9.75;100.00
72061;BME280;59925;52.136;5.420;2024-03-22T04:16:40;101871.47;;;9.75;100.00
72061;BME280;59925;52.136;5.420;2024-03-22T04:19:06;101869.59;;;9.75;100.00
72061;BME280;59925;52.136;5.420;2024-03-22T04:21:32;101863.44;;;9.75;100.00
72061;BME280;59925;52.136;5.420;2024-03-22T04:23:58;101864.03;;;9.77;100.00
72061;BME280;59925;52.136;5.420;2024-03-22T04:26:24;101865.88;;;9.76;100.00
72061;BME280;59925;52.136;5.420;2024-03-22T04:28:49;101865.88;;;9.76;100.00
72061;BME280;59925;52.136;5.420;2024-03-22T04:31:15;101866.91;;;9.75;100.00
72061;BME280;59925;52.136;5.420;2024-03-22T04:33:41;101863.91;;;9.72;100.00
72061;BME280;59925;52.136;5.420;2024-03-22T04:36:06;101862.06;;;9.72;100.00
72061;BME280;59925;52.136;5.420;2024-03-22T04:38:35;101864.16;;;9.70;100.00
72061;BME280;59925;52.136;5.420;2024-03-22T04:41:00;101855.09;;;9.71;100.00
72061;BME280;59925;52.136;5.420;2024-03-22T04:43:27;101868.69;;;9.70;100.00
72061;BME280;59925;52.136;5.420;2024-03-22T04:45:53;101868.09;;;9.68;100.00
72061;BME280;59925;52.136;5.420;2024-03-22T04:48:22;101858.69;;;9.65;100.00
72061;BME280;59925;52.136;5.420;2024-03-22T04:50:49;101861.63;;;9.63;100.00
72061;BME280;59925;52.136;5.420;2024-03-22T04:53:16;101865.34;;;9.62;100.00
72061;BME280;59925;52.136;5.420;2024-03-22T04:55:43;101851.38;;;9.60;100.00
72061;BME280;59925;52.136;5.420;2024-03-22T04:58:22;101860.47;;;9.59;100.00
72061;BME280;59925;52.136;5.420;2024-03-22T05:00:49;101865.56;;;9.61;100.00
72061;BME280;59925;52.136;5.420;2024-03-22T05:03:15;101861.25;;;9.60;100.00
72061;BME280;59925;52.136;5.420;2024-03-22T05:05:42;101866.63;;;9.60;100.00
72061;BME280;59925;52.136;5.420;2024-03-22T05:08:08;101865.56;;;9.61;100.00
72061;BME280;59925;52.136;5.420;2024-03-22T05:10:35;101860.22;;;9.61;100.00
72061;BME280;59925;52.136;5.420;2024-03-22T05:13:01;101866.63;;;9.60;100.00
72061;BME280;59925;52.136;5.420;2024-03-22T05:15:26;101862.56;;;9.57;100.00
72061;BME280;59925;52.136;5.420;2024-03-22T05:17:53;101849.19;;;9.57;100.00
72061;BME280;59925;52.136;5.420;2024-03-22T05:20:19;101851.63;;;9.59;100.00
72061;BME280;59925;52.136;5.420;2024-03-22T05:22:45;101862.34;;;9.59;100.00
72061;BME280;59925;52.136;5.420;2024-03-22T05:25:10;101863.94;;;9.60;100.00
72061;BME280;59925;52.136;5.420;2024-03-22T05:27:37;101861.03;;;9.61;100.00
72061;BME280;59925;52.136;5.420;2024-03-22T05:30:03;101854.06;;;9.60;100.00
72061;BME280;59925;52.136;5.420;2024-03-22T05:32:29;101847.31;;;9.58;100.00
72061;BME280;59925;52.136;5.420;2024-03-22T05:34:55;101840.34;;;9.57;100.00
72061;BME280;59925;52.136;5.420;2024-03-22T05:37:21;101838.47;;;9.57;100.00
72061;BME280;59925;52.136;5.420;2024-03-22T05:39:46;101847.78;;;9.55;100.00
72061;BME280;59925;52.136;5.420;2024-03-22T05:42:12;101838.72;;;9.56;100.00
72061;BME280;59925;52.136;5.420;2024-03-22T05:44:38;101831.72;;;9.55;100.00
72061;BME280;59925;52.136;5.420;2024-03-22T05:47:03;101832.78;;;9.54;100.00
72061;BME280;59925;52.136;5.420;2024-03-22T05:49:29;101833.03;;;9.52;100.00
72061;BME280;59925;52.136;5.420;2024-03-22T05:51:55;101831.41;;;9.51;100.00
72061;BME280;59925;52.136;5.420;2024-03-22T05:54:20;101827.56;;;9.47;100.00
72061;BME280;59925;52.136;5.420;2024-03-22T05:56:46;101823.00;;;9.47;100.00
72061;BME280;59925;52.136;5.420;2024-03-22T05:59:12;101825.69;;;9.47;100.00
72061;BME280;59925;52.136;5.420;2024-03-22T06:01:37;101821.63;;;9.45;100.00
72061;BME280;59925;52.136;5.420;2024-03-22T06:04:06;101814.44;;;9.45;100.00
72061;BME280;59925;52.136;5.420;2024-03-22T06:06:35;101816.84;;;9.47;100.00
72061;BME280;59925;52.136;5.420;2024-03-22T06:09:01;101820.34;;;9.47;100.00
72061;BME280;59925;52.136;5.420;2024-03-22T06:11:32;101810.47;;;9.48;100.00
72061;BME280;59925;52.136;5.420;2024-03-22T06:13:57;101812.88;;;9.49;100.00
72061;BME280;59925;52.136;5.420;2024-03-22T06:16:23;101817.44;;;9.49;100.00
72061;BME280;59925;52.136;5.420;2024-03-22T06:18:48;101813.22;;;9.53;100.00
72061;BME280;59925;52.136;5.420;2024-03-22T06:21:14;101808.94;;;9.52;100.00
72061;BME280;59925;52.136;5.420;2024-03-22T06:23:51;101819.16;;;9.55;100.00
72061;BME280;59925;52.136;5.420;2024-03-22T06:26:17;101799.34;;;9.56;100.00
72061;BME280;59925;52.136;5.420;2024-03-22T06:28:43;101806.34;;;9.57;100.00
72061;BME280;59925;52.136;5.420;2024-03-22T06:31:08;101800.50;;;9.60;100.00
72061;BME280;59925;52.136;5.420;2024-03-22T06:33:34;101798.63;;;9.61;100.00
72061;BME280;59925;52.136;5.420;2024-03-22T06:36:00;101807.03;;;9.64;100.00
72061;BME280;59925;52.136;5.420;2024-03-22T06:38:26;101810.03;;;9.68;100.00
72061;BME280;59925;52.136;5.420;2024-03-22T06:40:51;101810.34;;;9.72;100.00
72061;BME280;59925;52.136;5.420;2024-03-22T06:43:17;101804.75;;;9.73;100.00
72061;BME280;59925;52.136;5.420;2024-03-22T06:45:42;101801.38;;;9.78;100.00
72061;BME280;59925;52.136;5.420;2024-03-22T06:48:08;101806.81;;;9.83;100.00
72061;BME280;59925;52.136;5.420;2024-03-22T06:50:33;101799.59;;;9.84;100.00
72061;BME280;59925;52.136;5.420;2024-03-22T06:52:59;101798.88;;;9.88;100.00
72061;BME280;59925;52.136;5.420;2024-03-22T06:55:24;101811.53;;;9.93;100.00
72061;BME280;59925;52.136;5.420;2024-03-22T06:57:50;101808.13;;;9.97;100.00
72061;BME280;59925;52.136;5.420;2024-03-22T07:00:18;101805.56;;;10.03;100.00
72061;BME280;59925;52.136;5.420;2024-03-22T07:02:44;101806.19;;;10.10;100.00
72061;BME280;59925;52.136;5.420;2024-03-22T07:05:10;101807.56;;;10.12;100.00
72061;BME280;59925;52.136;5.420;2024-03-22T07:07:36;101805.47;;;10.15;100.00
72061;BME280;59925;52.136;5.420;2024-03-22T07:10:03;101813.28;;;10.16;100.00
72061;BME280;59925;52.136;5.420;2024-03-22T07:12:29;101810.09;;;10.19;100.00
72061;BME280;59925;52.136;5.420;2024-03-22T07:14:59;101815.25;;;10.21;100.00
72061;BME280;59925;52.136;5.420;2024-03-22T07:17:25;101813.94;;;10.23;100.00
72061;BME280;59925;52.136;5.420;2024-03-22T07:19:51;101805.66;;;10.25;100.00
72061;BME280;59925;52.136;5.420;2024-03-22T07:22:17;101800.63;;;10.28;100.00
72061;BME280;59925;52.136;5.420;2024-03-22T07:24:43;101810.59;;;10.33;100.00
72061;BME280;59925;52.136;5.420;2024-03-22T07:27:08;101802.88;;;10.37;100.00
72061;BME280;59925;52.136;5.420;2024-03-22T07:29:35;101803.38;;;10.34;100.00
72061;BME280;59925;52.136;5.420;2024-03-22T07:32:00;101810.94;;;10.37;100.00
72061;BME280;59925;52.136;5.420;2024-03-22T07:34:26;101809.91;;;10.38;100.00
72061;BME280;59925;52.136;5.420;2024-03-22T07:36:51;101821.19;;;10.40;100.00
72061;BME280;59925;52.136;5.420;2024-03-22T07:39:17;101810.47;;;10.40;100.00
72061;BME280;59925;52.136;5.420;2024-03-22T07:41:42;101814.44;;;10.37;100.00
72061;BME280;59925;52.136;5.420;2024-03-22T07:44:08;101808.06;;;10.38;100.00
72061;BME280;59925;52.136;5.420;2024-03-22T07:46:33;101813.88;;;10.35;100.00
72061;BME280;59925;52.136;5.420;2024-03-22T07:48:59;101806.31;;;10.32;100.00
72061;BME280;59925;52.136;5.420;2024-03-22T07:51:25;101803.88;;;10.31;100.00
72061;BME280;59925;52.136;5.420;2024-03-22T07:53:50;101797.38;;;10.26;100.00
72061;BME280;59925;52.136;5.420;2024-03-22T07:56:17;101804.34;;;10.27;100.00
72061;BME280;59925;52.136;5.420;2024-03-22T07:58:43;101799.56;;;10.30;100.00
72061;BME280;59925;52.136;5.420;2024-03-22T08:01:08;101808.97;;;10.32;100.00
72061;BME280;59925;52.136;5.420;2024-03-22T08:03:34;101808.34;;;10.25;100.00
72061;BME280;59925;52.136;5.420;2024-03-22T08:05:59;101809.63;;;10.22;100.00
72061;BME280;59925;52.136;5.420;2024-03-22T08:08:25;101803.69;;;10.20;100.00
72061;BME280;59925;52.136;5.420;2024-03-22T08:10:50;101804.03;;;10.24;100.00
72061;BME280;59925;52.136;5.420;2024-03-22T08:13:16;101798.69;;;10.24;100.00
72061;BME280;59925;52.136;5.420;2024-03-22T08:15:42;101795.75;;;10.25;100.00
72061;BME280;59925;52.136;5.420;2024-03-22T08:18:09;101802.41;;;10.23;100.00
72061;BME280;59925;52.136;5.420;2024-03-22T08:20:34;101801.84;;;10.21;100.00
72061;BME280;59925;52.136;5.420;2024-03-22T08:23:00;101798.91;;;10.22;100.00
72061;BME280;59925;52.136;5.420;2024-03-22T08:25:26;101801.59;;;10.22;100.00
72061;BME280;59925;52.136;5.420;2024-03-22T08:27:51;101797.28;;;10.21;100.00
72061;BME280;59925;52.136;5.420;2024-03-22T08:30:21;101796.94;;;10.18;100.00
72061;BME280;59925;52.136;5.420;2024-03-22T08:32:47;101802.78;;;10.15;100.00
72061;BME280;59925;52.136;5.420;2024-03-22T08:35:12;101801.69;;;10.10;100.00
72061;BME280;59925;52.136;5.420;2024-03-22T08:37:38;101796.31;;;10.10;100.00
72061;BME280;59925;52.136;5.420;2024-03-22T08:40:04;101797.94;;;10.11;100.00
72061;BME280;59925;52.136;5.420;2024-03-22T08:42:30;101799.31;;;10.14;100.00
72061;BME280;59925;52.136;5.420;2024-03-22T08:44:55;101794.44;;;10.11;100.00
72061;BME280;59925;52.136;5.420;2024-03-22T08:47:21;101789.06;;;10.11;100.00
72061;BME280;59925;52.136;5.420;2024-03-22T08:49:46;101794.69;;;10.09;100.00
72061;BME280;59925;52.136;5.420;2024-03-22T08:52:12;101792.81;;;10.10;100.00
72061;BME280;59925;52.136;5.420;2024-03-22T08:54:37;101787.13;;;10.06;100.00
72061;BME280;59925;52.136;5.420;2024-03-22T08:57:03;101786.13;;;10.12;100.00
72061;BME280;59925;52.136;5.420;2024-03-22T08:59:28;101790.38;;;10.08;100.00
72061;BME280;59925;52.136;5.420;2024-03-22T09:01:54;101788.97;;;10.06;100.00
72061;BME280;59925;52.136;5.420;2024-03-22T09:04:19;101795.97;;;10.07;100.00
72061;BME280;59925;52.136;5.420;2024-03-22T09:06:45;101791.44;;;10.07;100.00
72061;BME280;59925;52.136;5.420;2024-03-22T09:09:11;101789.22;;;10.04;100.00
72061;BME280;59925;52.136;5.420;2024-03-22T09:11:36;101789.22;;;10.04;100.00
72061;BME280;59925;52.136;5.420;2024-03-22T09:14:02;101791.91;;;10.04;100.00
72061;BME280;59925;52.136;5.420;2024-03-22T09:16:27;101792.50;;;10.06;100.00
72061;BME280;59925;52.136;5.420;2024-03-22T09:18:53;101798.91;;;10.05;100.00
72061;BME280;59925;52.136;5.420;2024-03-22T09:21:19;101788.44;;;10.04;100.00
72061;BME280;59925;52.136;5.420;2024-03-22T09:23:45;101788.75;;;10.07;100.00
72061;BME280;59925;52.136;5.420;2024-03-22T09:26:10;101787.44;;;10.10;100.00
72061;BME280;59925;52.136;5.420;2024-03-22T09:28:36;101778.84;;;10.08;100.00
72061;BME280;59925;52.136;5.420;2024-03-22T09:31:05;101779.88;;;10.07;100.00
72061;BME280;59925;52.136;5.420;2024-03-22T09:33:33;101784.78;;;10.10;100.00
72061;BME280;59925;52.136;5.420;2024-03-22T09:35:59;101777.88;;;10.14;100.00
72061;BME280;59925;52.136;5.420;2024-03-22T09:38:24;101777.41;;;10.17;100.00
72061;BME280;59925;52.136;5.420;2024-03-22T09:40:50;101779.09;;;10.23;100.00
72061;BME280;59925;52.136;5.420;2024-03-22T09:43:22;101779.09;;;10.23;100.00
72061;BME280;59925;52.136;5.420;2024-03-22T09:45:52;101775.94;;;10.26;100.00
72061;BME280;59925;52.136;5.420;2024-03-22T09:48:18;101775.94;;;10.26;100.00
72061;BME280;59925;52.136;5.420;2024-03-22T09:50:47;101777.31;;;10.29;100.00
72061;BME280;59925;52.136;5.420;2024-03-22T09:53:18;101765.84;;;10.34;100.00
72061;BME280;59925;52.136;5.420;2024-03-22T09:55:45;101771.31;;;10.39;100.00
72061;BME280;59925;52.136;5.420;2024-03-22T09:58:10;101775.63;;;10.40;100.00
72061;BME280;59925;52.136;5.420;2024-03-22T10:00:36;101773.09;;;10.33;100.00
72061;BME280;59925;52.136;5.420;2024-03-22T10:03:02;101767.84;;;10.38;100.00
72061;BME280;59925;52.136;5.420;2024-03-22T10:05:29;101773.53;;;10.42;100.00
72061;BME280;59925;52.136;5.420;2024-03-22T10:07:55;101760.69;;;10.44;100.00
72061;BME280;59925;52.136;5.420;2024-03-22T10:10:20;101771.94;;;10.46;100.00
72061;BME280;59925;52.136;5.420;2024-03-22T10:12:49;101767.16;;;10.48;100.00
72061;BME280;59925;52.136;5.420;2024-03-22T10:15:15;101767.25;;;10.53;100.00
72061;BME280;59925;52.136;5.420;2024-03-22T10:17:42;101772.91;;;10.57;100.00
72061;BME280;59925;52.136;5.420;2024-03-22T10:20:07;101764.66;;;10.58;100.00
72061;BME280;59925;52.136;5.420;2024-03-22T10:22:58;101762.03;;;10.64;100.00
72061;BME280;59925;52.136;5.420;2024-03-22T10:25:27;101757.81;;;10.68;100.00
72061;BME280;59925;52.136;5.420;2024-03-22T10:27:54;101746.81;;;10.69;100.00
72061;BME280;59925;52.136;5.420;2024-03-22T10:30:19;101762.16;;;10.74;100.00
72061;BME280;59925;52.136;5.420;2024-03-22T10:32:46;101758.91;;;10.72;100.00
72061;BME280;59925;52.136;5.420;2024-03-22T10:35:13;101760.03;;;10.76;100.00
72061;BME280;59925;52.136;5.420;2024-03-22T10:37:39;101757.50;;;10.64;100.00
72061;BME280;59925;52.136;5.420;2024-03-22T10:40:05;101755.34;;;10.66;100.00
72061;BME280;59925;52.136;5.420;2024-03-22T10:42:35;101761.28;;;10.68;100.00
72061;BME280;59925;52.136;5.420;2024-03-22T10:45:02;101760.41;;;10.63;100.00
72061;BME280;59925;52.136;5.420;2024-03-22T10:47:30;101753.41;;;10.62;100.00
72061;BME280;59925;52.136;5.420;2024-03-22T10:50:04;101762.03;;;10.64;100.00
72061;BME280;59925;52.136;5.420;2024-03-22T10:52:57;101763.47;;;10.71;100.00
72061;BME280;59925;52.136;5.420;2024-03-22T10:55:28;101758.97;;;10.77;100.00
72061;BME280;59925;52.136;5.420;2024-03-22T10:57:57;101761.19;;;10.80;100.00
72061;BME280;59925;52.136;5.420;2024-03-22T11:00:29;101761.94;;;10.76;100.00
72061;BME280;59925;52.136;5.420;2024-03-22T11:02:56;101762.69;;;10.71;100.00
72061;BME280;59925;52.136;5.420;2024-03-22T11:05:21;101758.09;;;10.71;100.00
72061;BME280;59925;52.136;5.420;2024-03-22T11:07:47;101753.31;;;10.73;100.00
72061;BME280;59925;52.136;5.420;2024-03-22T11:10:13;101751.78;;;10.78;100.00
72061;BME280;59925;52.136;5.420;2024-03-22T11:12:40;101750.63;;;10.73;100.00
72061;BME280;59925;52.136;5.420;2024-03-22T11:15:07;101753.88;;;10.76;100.00
72061;BME280;59925;52.136;5.420;2024-03-22T11:17:32;101746.44;;;10.83;100.00
72061;BME280;59925;52.136;5.420;2024-03-22T11:19:58;101742.03;;;10.94;100.00
72061;BME280;59925;52.136;5.420;2024-03-22T11:22:25;101739.34;;;10.94;100.00
72061;BME280;59925;52.136;5.420;2024-03-22T11:24:52;101745.91;;;11.03;100.00
72061;BME280;59925;52.136;5.420;2024-03-22T11:27:17;101731.16;;;11.06;100.00
72061;BME280;59925;52.136;5.420;2024-03-22T11:29:44;101729.72;;;11.20;100.00
72061;BME280;59925;52.136;5.420;2024-03-22T11:32:12;101734.38;;;11.30;100.00
72061;BME280;59925;52.136;5.420;2024-03-22T11:34:38;101727.50;;;11.39;100.00
72061;BME280;59925;52.136;5.420;2024-03-22T11:37:05;101727.16;;;11.58;100.00
72061;BME280;59925;52.136;5.420;2024-03-22T11:39:38;101715.16;;;11.65;100.00
72061;BME280;59925;52.136;5.420;2024-03-22T11:42:05;101720.59;;;11.76;100.00
72061;BME280;59925;52.136;5.420;2024-03-22T11:44:32;101720.25;;;11.67;100.00
72061;BME280;59925;52.136;5.420;2024-03-22T11:46:58;101720.22;;;11.62;100.00
72061;BME280;59925;52.136;5.420;2024-03-22T11:49:24;101711.03;;;11.58;100.00
72061;BME280;59925;52.136;5.420;2024-03-22T11:51:51;101712.88;;;11.52;100.00
72061;BME280;59925;52.136;5.420;2024-03-22T11:54:19;101702.84;;;11.42;100.00
72061;BME280;59925;52.136;5.420;2024-03-22T11:56:45;101710.13;;;11.47;100.00
72061;BME280;59925;52.136;5.420;2024-03-22T11:59:11;101707.16;;;11.43;100.00
72061;BME280;59925;52.136;5.420;2024-03-22T12:01:36;101709.53;;;11.40;100.00
72061;BME280;59925;52.136;5.420;2024-03-22T12:04:02;101707.44;;;11.47;100.00
72061;BME280;59925;52.136;5.420;2024-03-22T12:06:27;101707.41;;;11.42;100.00
72061;BME280;59925;52.136;5.420;2024-03-22T12:08:53;101705.88;;;11.24;100.00
72061;BME280;59925;52.136;5.420;2024-03-22T12:11:19;101706.22;;;11.05;100.00
72061;BME280;59925;52.136;5.420;2024-03-22T12:13:44;101699.72;;;11.01;100.00
72061;BME280;59925;52.136;5.420;2024-03-22T12:16:10;101696.28;;;11.06;100.00
72061;BME280;59925;52.136;5.420;2024-03-22T12:18:35;101700.47;;;10.96;100.00
72061;BME280;59925;52.136;5.420;2024-03-22T12:21:01;101705.53;;;10.93;100.00
72061;BME280;59925;52.136;5.420;2024-03-22T12:23:27;101701.22;;;10.92;100.00
72061;BME280;59925;52.136;5.420;2024-03-22T12:25:52;101700.34;;;10.86;100.00
72061;BME280;59925;52.136;5.420;2024-03-22T12:28:20;101701.72;;;10.88;100.00
72061;BME280;59925;52.136;5.420;2024-03-22T12:30:46;101695.50;;;10.83;100.00
72061;BME280;59925;52.136;5.420;2024-03-22T12:33:11;101695.19;;;10.79;100.00
72061;BME280;59925;52.136;5.420;2024-03-22T12:35:40;101694.16;;;10.85;100.00
72061;BME280;59925;52.136;5.420;2024-03-22T12:38:06;101686.13;;;10.85;100.00